sensor_id;sensor_type;location;lat;lon;timestamp;P1;durP1;ratioP1;P2;durP2;ratioP2
75413;SDS011;64758;52.122;5.404;2023-07-09T00:01:49;11.38;;;9.13;;
75413;SDS011;64758;52.122;5.404;2023-07-09T00:04:17;11.00;;;9.27;;
75413;SDS011;64758;52.122;5.404;2023-07-09T00:06:44;10.23;;;8.77;;
75413;SDS011;64758;52.122;5.404;2023-07-09T00:09:12;11.95;;;9.20;;
75413;SDS011;64758;52.122;5.404;2023-07-09T00:11:41;12.13;;;8.82;;
75413;SDS011;64758;52.122;5.404;2023-07-09T00:14:12;12.32;;;9.40;;
75413;SDS011;64758;52.122;5.404;2023-07-09T00:16:41;10.65;;;9.50;;
75413;SDS011;64758;52.122;5.404;2023-07-09T00:19:13;10.83;;;9.73;;
75413;SDS011;64758;52.122;5.404;2023-07-09T00:21:43;11.55;;;9.32;;
75413;SDS011;64758;52.122;5.404;2023-07-09T00:24:11;12.48;;;9.30;;
75413;SDS011;64758;52.122;5.404;2023-07-09T00:26:38;10.52;;;9.45;;
75413;SDS011;64758;52.122;5.404;2023-07-09T00:29:08;10.50;;;9.27;;
75413;SDS011;64758;52.122;5.404;2023-07-09T00:31:37;10.27;;;8.87;;
75413;SDS011;64758;52.122;5.404;2023-07-09T00:34:11;13.32;;;9.18;;
75413;SDS011;64758;52.122;5.404;2023-07-09T00:36:39;12.88;;;9.30;;
75413;SDS011;64758;52.122;5.404;2023-07-09T00:39:16;12.23;;;9.77;;
75413;SDS011;64758;52.122;5.404;2023-07-09T00:41:45;11.18;;;9.60;;
75413;SDS011;64758;52.122;5.404;2023-07-09T00:49:24;11.55;;;9.60;;
75413;SDS011;64758;52.122;5.404;2023-07-09T00:51:56;10.35;;;8.88;;
75413;SDS011;64758;52.122;5.404;2023-07-09T00:54:36;11.15;;;8.75;;
75413;SDS011;64758;52.122;5.404;2023-07-09T00:57:07;10.30;;;8.90;;
75413;SDS011;64758;52.122;5.404;2023-07-09T00:59:40;10.73;;;8.80;;
75413;SDS011;64758;52.122;5.404;2023-07-09T01:02:07;12.02;;;8.85;;
75413;SDS011;64758;52.122;5.404;2023-07-09T01:04:34;9.77;;;8.57;;
75413;SDS011;64758;52.122;5.404;2023-07-09T01:07:02;10.52;;;8.02;;
75413;SDS011;64758;52.122;5.404;2023-07-09T01:09:30;11.37;;;8.43;;
75413;SDS011;64758;52.122;5.404;2023-07-09T01:11:56;10.23;;;8.02;;
75413;SDS011;64758;52.122;5.404;2023-07-09T01:14:27;10.65;;;8.32;;
75413;SDS011;64758;52.122;5.404;2023-07-09T01:16:58;12.25;;;8.52;;
75413;SDS011;64758;52.122;5.404;2023-07-09T01:19:29;10.63;;;9.07;;
75413;SDS011;64758;52.122;5.404;2023-07-09T01:22:13;12.03;;;8.60;;
75413;SDS011;64758;52.122;5.404;2023-07-09T01:24:52;11.32;;;8.77;;
75413;SDS011;64758;52.122;5.404;2023-07-09T01:27:29;12.02;;;8.40;;
75413;SDS011;64758;52.122;5.404;2023-07-09T01:30:05;9.10;;;8.18;;
75413;SDS011;64758;52.122;5.404;2023-07-09T01:32:34;9.15;;;8.20;;
75413;SDS011;64758;52.122;5.404;2023-07-09T01:35:04;10.77;;;7.93;;
75413;SDS011;64758;52.122;5.404;2023-07-09T01:37:34;8.73;;;7.82;;
75413;SDS011;64758;52.122;5.404;2023-07-09T01:40:04;10.55;;;7.55;;
75413;SDS011;64758;52.122;5.404;2023-07-09T01:42:45;7.50;;;6.22;;
75413;SDS011;64758;52.122;5.404;2023-07-09T01:45:12;9.85;;;8.05;;
75413;SDS011;64758;52.122;5.404;2023-07-09T01:47:40;8.67;;;7.30;;
75413;SDS011;64758;52.122;5.404;2023-07-09T01:50:09;9.27;;;8.38;;
75413;SDS011;64758;52.122;5.404;2023-07-09T01:52:37;11.00;;;8.48;;
75413;SDS011;64758;52.122;5.404;2023-07-09T01:55:11;9.75;;;7.88;;
75413;SDS011;64758;52.122;5.404;2023-07-09T01:57:43;10.40;;;8.57;;
75413;SDS011;64758;52.122;5.404;2023-07-09T02:00:11;10.83;;;8.60;;
75413;SDS011;64758;52.122;5.404;2023-07-09T02:02:40;9.52;;;8.48;;
75413;SDS011;64758;52.122;5.404;2023-07-09T02:05:11;11.32;;;8.88;;
75413;SDS011;64758;52.122;5.404;2023-07-09T02:07:40;13.57;;;8.30;;
75413;SDS011;64758;52.122;5.404;2023-07-09T02:10:07;9.23;;;8.07;;
75413;SDS011;64758;52.122;5.404;2023-07-09T02:12:34;12.00;;;9.00;;
75413;SDS011;64758;52.122;5.404;2023-07-09T02:15:00;9.30;;;8.27;;
75413;SDS011;64758;52.122;5.404;2023-07-09T02:17:27;10.20;;;7.72;;
75413;SDS011;64758;52.122;5.404;2023-07-09T02:19:54;9.50;;;8.25;;
75413;SDS011;64758;52.122;5.404;2023-07-09T02:22:20;12.27;;;9.05;;
75413;SDS011;64758;52.122;5.404;2023-07-09T02:24:47;11.73;;;9.17;;
75413;SDS011;64758;52.122;5.404;2023-07-09T02:27:15;11.85;;;8.40;;
75413;SDS011;64758;52.122;5.404;2023-07-09T02:29:42;10.48;;;8.40;;
75413;SDS011;64758;52.122;5.404;2023-07-09T02:32:09;14.48;;;8.88;;
75413;SDS011;64758;52.122;5.404;2023-07-09T02:34:46;9.80;;;8.75;;
75413;SDS011;64758;52.122;5.404;2023-07-09T02:37:16;10.33;;;8.03;;
75413;SDS011;64758;52.122;5.404;2023-07-09T02:39:44;8.35;;;7.18;;
75413;SDS011;64758;52.122;5.404;2023-07-09T02:42:11;8.43;;;6.97;;
75413;SDS011;64758;52.122;5.404;2023-07-09T02:44:40;9.25;;;7.43;;
75413;SDS011;64758;52.122;5.404;2023-07-09T02:47:07;9.63;;;8.00;;
75413;SDS011;64758;52.122;5.404;2023-07-09T02:49:34;9.90;;;8.07;;
75413;SDS011;64758;52.122;5.404;2023-07-09T02:52:02;9.65;;;8.05;;
75413;SDS011;64758;52.122;5.404;2023-07-09T02:54:29;10.70;;;7.80;;
75413;SDS011;64758;52.122;5.404;2023-07-09T02:56:56;10.00;;;8.40;;
75413;SDS011;64758;52.122;5.404;2023-07-09T02:59:23;9.73;;;8.15;;
75413;SDS011;64758;52.122;5.404;2023-07-09T03:01:50;10.03;;;7.90;;
75413;SDS011;64758;52.122;5.404;2023-07-09T03:04:16;9.60;;;7.78;;
75413;SDS011;64758;52.122;5.404;2023-07-09T03:06:43;12.60;;;8.32;;
75413;SDS011;64758;52.122;5.404;2023-07-09T03:09:11;10.07;;;8.18;;
75413;SDS011;64758;52.122;5.404;2023-07-09T03:11:37;8.48;;;7.53;;
75413;SDS011;64758;52.122;5.404;2023-07-09T03:14:04;7.37;;;6.13;;
75413;SDS011;64758;52.122;5.404;2023-07-09T03:16:32;7.65;;;6.32;;
75413;SDS011;64758;52.122;5.404;2023-07-09T03:19:00;8.90;;;7.43;;
75413;SDS011;64758;52.122;5.404;2023-07-09T03:21:27;11.00;;;7.60;;
75413;SDS011;64758;52.122;5.404;2023-07-09T03:23:54;10.38;;;8.45;;
75413;SDS011;64758;52.122;5.404;2023-07-09T03:26:21;10.33;;;8.10;;
75413;SDS011;64758;52.122;5.404;2023-07-09T03:28:48;10.77;;;8.68;;
75413;SDS011;64758;52.122;5.404;2023-07-09T03:31:15;10.35;;;8.40;;
75413;SDS011;64758;52.122;5.404;2023-07-09T03:33:42;10.10;;;8.02;;
75413;SDS011;64758;52.122;5.404;2023-07-09T03:36:08;13.45;;;8.45;;
75413;SDS011;64758;52.122;5.404;2023-07-09T03:38:35;12.23;;;8.30;;
75413;SDS011;64758;52.122;5.404;2023-07-09T03:41:01;14.00;;;8.20;;
75413;SDS011;64758;52.122;5.404;2023-07-09T03:43:28;9.55;;;7.65;;
75413;SDS011;64758;52.122;5.404;2023-07-09T03:45:55;10.95;;;8.00;;
75413;SDS011;64758;52.122;5.404;2023-07-09T03:48:21;10.43;;;8.10;;
75413;SDS011;64758;52.122;5.404;2023-07-09T03:50:48;8.03;;;6.73;;
75413;SDS011;64758;52.122;5.404;2023-07-09T03:53:15;7.45;;;6.63;;
75413;SDS011;64758;52.122;5.404;2023-07-09T03:55:44;8.48;;;7.22;;
75413;SDS011;64758;52.122;5.404;2023-07-09T03:58:12;8.25;;;7.07;;
75413;SDS011;64758;52.122;5.404;2023-07-09T04:00:39;9.48;;;7.80;;
75413;SDS011;64758;52.122;5.404;2023-07-09T04:03:06;10.50;;;7.80;;
75413;SDS011;64758;52.122;5.404;2023-07-09T04:05:35;9.65;;;8.32;;
75413;SDS011;64758;52.122;5.404;2023-07-09T04:08:02;9.10;;;7.90;;
75413;SDS011;64758;52.122;5.404;2023-07-09T04:10:29;10.05;;;7.50;;
75413;SDS011;64758;52.122;5.404;2023-07-09T04:12:56;9.70;;;8.27;;
75413;SDS011;64758;52.122;5.404;2023-07-09T04:15:22;7.93;;;6.93;;
75413;SDS011;64758;52.122;5.404;2023-07-09T04:17:49;8.15;;;7.35;;
75413;SDS011;64758;52.122;5.404;2023-07-09T04:20:16;10.02;;;8.00;;
75413;SDS011;64758;52.122;5.404;2023-07-09T04:22:42;9.73;;;7.80;;
75413;SDS011;64758;52.122;5.404;2023-07-09T04:25:09;9.18;;;7.70;;
75413;SDS011;64758;52.122;5.404;2023-07-09T04:27:37;10.43;;;7.83;;
75413;SDS011;64758;52.122;5.404;2023-07-09T04:30:12;10.02;;;7.95;;
75413;SDS011;64758;52.122;5.404;2023-07-09T04:32:42;9.43;;;7.30;;
75413;SDS011;64758;52.122;5.404;2023-07-09T04:35:10;12.32;;;7.90;;
75413;SDS011;64758;52.122;5.404;2023-07-09T04:37:38;8.98;;;7.68;;
75413;SDS011;64758;52.122;5.404;2023-07-09T04:40:06;10.13;;;7.73;;
75413;SDS011;64758;52.122;5.404;2023-07-09T04:42:36;10.20;;;7.35;;
75413;SDS011;64758;52.122;5.404;2023-07-09T04:45:05;11.27;;;7.65;;
75413;SDS011;64758;52.122;5.404;2023-07-09T04:47:33;11.00;;;8.80;;
75413;SDS011;64758;52.122;5.404;2023-07-09T04:50:00;11.60;;;8.18;;
75413;SDS011;64758;52.122;5.404;2023-07-09T04:52:28;10.93;;;8.03;;
75413;SDS011;64758;52.122;5.404;2023-07-09T04:54:54;10.82;;;8.35;;
75413;SDS011;64758;52.122;5.404;2023-07-09T04:57:22;11.27;;;8.30;;
75413;SDS011;64758;52.122;5.404;2023-07-09T04:59:49;11.52;;;7.93;;
75413;SDS011;64758;52.122;5.404;2023-07-09T05:02:16;11.05;;;8.27;;
75413;SDS011;64758;52.122;5.404;2023-07-09T05:04:42;12.60;;;7.73;;
75413;SDS011;64758;52.122;5.404;2023-07-09T05:07:09;8.32;;;6.75;;
75413;SDS011;64758;52.122;5.404;2023-07-09T05:09:35;9.68;;;7.88;;
75413;SDS011;64758;52.122;5.404;2023-07-09T05:12:02;8.45;;;7.32;;
75413;SDS011;64758;52.122;5.404;2023-07-09T05:14:29;9.93;;;8.20;;
75413;SDS011;64758;52.122;5.404;2023-07-09T05:16:55;11.10;;;7.80;;
75413;SDS011;64758;52.122;5.404;2023-07-09T05:19:23;13.95;;;8.73;;
75413;SDS011;64758;52.122;5.404;2023-07-09T05:21:50;12.32;;;8.40;;
75413;SDS011;64758;52.122;5.404;2023-07-09T05:24:16;10.68;;;8.10;;
75413;SDS011;64758;52.122;5.404;2023-07-09T05:26:43;10.48;;;8.07;;
75413;SDS011;64758;52.122;5.404;2023-07-09T05:29:09;9.07;;;7.53;;
75413;SDS011;64758;52.122;5.404;2023-07-09T05:31:36;10.02;;;8.27;;
75413;SDS011;64758;52.122;5.404;2023-07-09T05:34:02;9.07;;;7.93;;
75413;SDS011;64758;52.122;5.404;2023-07-09T05:36:29;8.57;;;7.65;;
75413;SDS011;64758;52.122;5.404;2023-07-09T05:38:56;10.48;;;8.75;;
75413;SDS011;64758;52.122;5.404;2023-07-09T05:41:23;10.37;;;9.23;;
75413;SDS011;64758;52.122;5.404;2023-07-09T05:43:50;12.80;;;11.35;;
75413;SDS011;64758;52.122;5.404;2023-07-09T05:46:18;15.07;;;12.40;;
75413;SDS011;64758;52.122;5.404;2023-07-09T05:48:45;15.65;;;12.05;;
75413;SDS011;64758;52.122;5.404;2023-07-09T05:51:12;13.88;;;11.85;;
75413;SDS011;64758;52.122;5.404;2023-07-09T05:53:39;12.57;;;11.27;;
75413;SDS011;64758;52.122;5.404;2023-07-09T05:56:06;18.63;;;11.98;;
75413;SDS011;64758;52.122;5.404;2023-07-09T05:58:33;12.65;;;11.02;;
75413;SDS011;64758;52.122;5.404;2023-07-09T06:01:00;14.90;;;11.10;;
75413;SDS011;64758;52.122;5.404;2023-07-09T06:03:28;16.48;;;11.68;;
75413;SDS011;64758;52.122;5.404;2023-07-09T06:05:55;19.93;;;10.80;;
75413;SDS011;64758;52.122;5.404;2023-07-09T06:08:23;16.50;;;11.60;;
75413;SDS011;64758;52.122;5.404;2023-07-09T06:10:57;12.18;;;10.93;;
75413;SDS011;64758;52.122;5.404;2023-07-09T06:13:28;14.68;;;11.82;;
75413;SDS011;64758;52.122;5.404;2023-07-09T06:15:59;17.17;;;12.15;;
75413;SDS011;64758;52.122;5.404;2023-07-09T06:18:27;15.93;;;11.47;;
75413;SDS011;64758;52.122;5.404;2023-07-09T06:20:57;13.93;;;11.02;;
75413;SDS011;64758;52.122;5.404;2023-07-09T06:23:26;12.93;;;11.48;;
75413;SDS011;64758;52.122;5.404;2023-07-09T06:25:53;14.32;;;11.82;;
75413;SDS011;64758;52.122;5.404;2023-07-09T06:28:21;14.32;;;12.40;;
75413;SDS011;64758;52.122;5.404;2023-07-09T06:30:50;15.50;;;12.13;;
75413;SDS011;64758;52.122;5.404;2023-07-09T06:33:17;20.02;;;13.70;;
75413;SDS011;64758;52.122;5.404;2023-07-09T06:35:48;17.98;;;12.75;;
75413;SDS011;64758;52.122;5.404;2023-07-09T06:38:20;16.25;;;12.30;;
75413;SDS011;64758;52.122;5.404;2023-07-09T06:40:47;15.80;;;11.27;;
75413;SDS011;64758;52.122;5.404;2023-07-09T06:43:14;16.50;;;11.40;;
75413;SDS011;64758;52.122;5.404;2023-07-09T06:48:17;16.85;;;13.50;;
75413;SDS011;64758;52.122;5.404;2023-07-09T06:50:44;19.85;;;13.65;;
75413;SDS011;64758;52.122;5.404;2023-07-09T06:53:11;15.52;;;12.52;;
75413;SDS011;64758;52.122;5.404;2023-07-09T06:55:37;16.07;;;13.00;;
75413;SDS011;64758;52.122;5.404;2023-07-09T06:58:04;20.08;;;13.05;;
75413;SDS011;64758;52.122;5.404;2023-07-09T07:00:33;15.90;;;12.57;;
75413;SDS011;64758;52.122;5.404;2023-07-09T07:03:00;15.70;;;12.52;;
75413;SDS011;64758;52.122;5.404;2023-07-09T07:05:27;14.65;;;12.70;;
75413;SDS011;64758;52.122;5.404;2023-07-09T07:07:54;17.20;;;12.37;;
75413;SDS011;64758;52.122;5.404;2023-07-09T07:10:21;18.00;;;12.88;;
75413;SDS011;64758;52.122;5.404;2023-07-09T07:12:48;20.77;;;12.93;;
75413;SDS011;64758;52.122;5.404;2023-07-09T07:15:15;15.38;;;12.25;;
75413;SDS011;64758;52.122;5.404;2023-07-09T07:17:43;17.02;;;11.63;;
75413;SDS011;64758;52.122;5.404;2023-07-09T07:20:10;17.50;;;12.13;;
75413;SDS011;64758;52.122;5.404;2023-07-09T07:22:38;21.58;;;11.20;;
75413;SDS011;64758;52.122;5.404;2023-07-09T07:25:06;15.77;;;11.65;;
75413;SDS011;64758;52.122;5.404;2023-07-09T07:27:34;16.63;;;10.80;;
75413;SDS011;64758;52.122;5.404;2023-07-09T07:30:02;16.60;;;11.73;;
75413;SDS011;64758;52.122;5.404;2023-07-09T07:32:29;16.93;;;11.37;;
75413;SDS011;64758;52.122;5.404;2023-07-09T07:34:55;15.07;;;10.77;;
75413;SDS011;64758;52.122;5.404;2023-07-09T07:37:22;15.93;;;11.65;;
75413;SDS011;64758;52.122;5.404;2023-07-09T07:39:48;18.90;;;10.70;;
75413;SDS011;64758;52.122;5.404;2023-07-09T07:42:15;13.55;;;10.75;;
75413;SDS011;64758;52.122;5.404;2023-07-09T07:44:42;19.20;;;11.27;;
75413;SDS011;64758;52.122;5.404;2023-07-09T07:47:08;13.65;;;10.60;;
75413;SDS011;64758;52.122;5.404;2023-07-09T07:49:35;15.55;;;10.45;;
75413;SDS011;64758;52.122;5.404;2023-07-09T07:52:01;13.80;;;10.38;;
75413;SDS011;64758;52.122;5.404;2023-07-09T07:54:30;13.15;;;10.40;;
75413;SDS011;64758;52.122;5.404;2023-07-09T07:56:59;15.13;;;9.83;;
75413;SDS011;64758;52.122;5.404;2023-07-09T07:59:26;14.88;;;11.10;;
75413;SDS011;64758;52.122;5.404;2023-07-09T08:01:52;16.35;;;11.18;;
75413;SDS011;64758;52.122;5.404;2023-07-09T08:04:19;13.25;;;9.13;;
75413;SDS011;64758;52.122;5.404;2023-07-09T08:06:46;17.33;;;9.38;;
75413;SDS011;64758;52.122;5.404;2023-07-09T08:09:12;15.87;;;9.30;;
75413;SDS011;64758;52.122;5.404;2023-07-09T08:11:39;14.02;;;10.15;;
75413;SDS011;64758;52.122;5.404;2023-07-09T08:14:06;13.25;;;9.65;;
75413;SDS011;64758;52.122;5.404;2023-07-09T08:16:33;12.13;;;9.27;;
75413;SDS011;64758;52.122;5.404;2023-07-09T08:18:59;12.60;;;8.90;;
75413;SDS011;64758;52.122;5.404;2023-07-09T08:21:26;13.13;;;8.53;;
75413;SDS011;64758;52.122;5.404;2023-07-09T08:23:53;12.70;;;8.65;;
75413;SDS011;64758;52.122;5.404;2023-07-09T08:26:19;9.88;;;7.68;;
75413;SDS011;64758;52.122;5.404;2023-07-09T08:28:46;12.00;;;7.85;;
75413;SDS011;64758;52.122;5.404;2023-07-09T08:31:13;12.02;;;8.13;;
75413;SDS011;64758;52.122;5.404;2023-07-09T08:33:39;9.20;;;6.57;;
75413;SDS011;64758;52.122;5.404;2023-07-09T08:36:07;9.35;;;6.60;;
75413;SDS011;64758;52.122;5.404;2023-07-09T08:38:34;9.95;;;7.15;;
75413;SDS011;64758;52.122;5.404;2023-07-09T08:46:20;10.63;;;7.23;;
75413;SDS011;64758;52.122;5.404;2023-07-09T08:48:48;8.70;;;6.88;;
75413;SDS011;64758;52.122;5.404;2023-07-09T08:51:28;9.68;;;7.35;;
75413;SDS011;64758;52.122;5.404;2023-07-09T08:54:07;11.52;;;7.68;;
75413;SDS011;64758;52.122;5.404;2023-07-09T08:56:40;10.68;;;6.85;;
75413;SDS011;64758;52.122;5.404;2023-07-09T08:59:07;9.37;;;7.10;;
75413;SDS011;64758;52.122;5.404;2023-07-09T09:01:38;12.45;;;8.20;;
75413;SDS011;64758;52.122;5.404;2023-07-09T09:06:47;9.38;;;7.25;;
75413;SDS011;64758;52.122;5.404;2023-07-09T09:09:31;9.10;;;7.30;;
75413;SDS011;64758;52.122;5.404;2023-07-09T09:14:56;10.55;;;6.85;;
75413;SDS011;64758;52.122;5.404;2023-07-09T09:17:25;8.70;;;6.78;;
75413;SDS011;64758;52.122;5.404;2023-07-09T09:20:28;11.38;;;6.75;;
75413;SDS011;64758;52.122;5.404;2023-07-09T09:27:42;9.93;;;6.68;;
75413;SDS011;64758;52.122;5.404;2023-07-09T09:30:15;11.52;;;7.25;;
75413;SDS011;64758;52.122;5.404;2023-07-09T09:32:47;8.23;;;6.75;;
75413;SDS011;64758;52.122;5.404;2023-07-09T09:35:18;10.38;;;7.03;;
75413;SDS011;64758;52.122;5.404;2023-07-09T09:37:51;8.23;;;6.43;;
75413;SDS011;64758;52.122;5.404;2023-07-09T09:40:19;10.27;;;6.03;;
75413;SDS011;64758;52.122;5.404;2023-07-09T09:42:50;9.13;;;6.63;;
75413;SDS011;64758;52.122;5.404;2023-07-09T09:45:19;8.38;;;6.53;;
75413;SDS011;64758;52.122;5.404;2023-07-09T09:47:47;9.48;;;6.25;;
75413;SDS011;64758;52.122;5.404;2023-07-09T09:50:16;11.47;;;6.70;;
75413;SDS011;64758;52.122;5.404;2023-07-09T09:52:44;6.75;;;5.90;;
75413;SDS011;64758;52.122;5.404;2023-07-09T09:55:17;10.52;;;6.60;;
75413;SDS011;64758;52.122;5.404;2023-07-09T09:57:53;8.90;;;6.60;;
75413;SDS011;64758;52.122;5.404;2023-07-09T10:00:24;8.05;;;6.22;;
75413;SDS011;64758;52.122;5.404;2023-07-09T10:02:59;8.83;;;6.50;;
75413;SDS011;64758;52.122;5.404;2023-07-09T10:05:32;10.15;;;6.55;;
75413;SDS011;64758;52.122;5.404;2023-07-09T10:10:45;9.15;;;6.30;;
75413;SDS011;64758;52.122;5.404;2023-07-09T10:13:34;7.18;;;6.45;;
75413;SDS011;64758;52.122;5.404;2023-07-09T10:16:05;9.93;;;5.90;;
75413;SDS011;64758;52.122;5.404;2023-07-09T10:22:00;8.52;;;6.13;;
75413;SDS011;64758;52.122;5.404;2023-07-09T10:30:13;10.40;;;8.40;;
75413;SDS011;64758;52.122;5.404;2023-07-09T10:33:09;13.10;;;9.95;;
75413;SDS011;64758;52.122;5.404;2023-07-09T10:42:00;8.43;;;5.90;;
75413;SDS011;64758;52.122;5.404;2023-07-09T10:44:34;7.43;;;5.60;;
75413;SDS011;64758;52.122;5.404;2023-07-09T10:47:06;9.38;;;5.60;;
75413;SDS011;64758;52.122;5.404;2023-07-09T10:49:40;13.10;;;9.57;;
75413;SDS011;64758;52.122;5.404;2023-07-09T10:52:25;11.10;;;8.95;;
75413;SDS011;64758;52.122;5.404;2023-07-09T11:00:05;11.35;;;9.55;;
75413;SDS011;64758;52.122;5.404;2023-07-09T11:02:37;11.73;;;9.70;;
75413;SDS011;64758;52.122;5.404;2023-07-09T11:05:05;12.25;;;9.77;;
75413;SDS011;64758;52.122;5.404;2023-07-09T11:10:06;13.43;;;8.90;;
75413;SDS011;64758;52.122;5.404;2023-07-09T11:12:41;11.80;;;9.00;;
75413;SDS011;64758;52.122;5.404;2023-07-09T11:15:23;10.57;;;8.27;;
75413;SDS011;64758;52.122;5.404;2023-07-09T11:17:57;12.68;;;8.80;;
75413;SDS011;64758;52.122;5.404;2023-07-09T11:20:25;14.45;;;10.13;;
75413;SDS011;64758;52.122;5.404;2023-07-09T11:23:06;12.93;;;10.07;;
75413;SDS011;64758;52.122;5.404;2023-07-09T11:25:44;16.80;;;9.20;;
75413;SDS011;64758;52.122;5.404;2023-07-09T11:28:13;11.07;;;8.95;;
75413;SDS011;64758;52.122;5.404;2023-07-09T11:33:17;13.60;;;10.35;;
75413;SDS011;64758;52.122;5.404;2023-07-09T11:36:23;14.87;;;11.90;;
75413;SDS011;64758;52.122;5.404;2023-07-09T11:38:51;13.63;;;11.48;;
75413;SDS011;64758;52.122;5.404;2023-07-09T11:46:36;12.77;;;11.43;;
75413;SDS011;64758;52.122;5.404;2023-07-09T11:49:09;13.10;;;10.13;;
75413;SDS011;64758;52.122;5.404;2023-07-09T11:51:40;11.90;;;10.70;;
75413;SDS011;64758;52.122;5.404;2023-07-09T11:54:11;14.48;;;11.02;;
75413;SDS011;64758;52.122;5.404;2023-07-09T11:56:41;15.35;;;10.93;;
75413;SDS011;64758;52.122;5.404;2023-07-09T11:59:08;11.95;;;10.52;;
75413;SDS011;64758;52.122;5.404;2023-07-09T12:01:45;12.33;;;7.80;;
75413;SDS011;64758;52.122;5.404;2023-07-09T12:04:15;7.80;;;7.00;;
75413;SDS011;64758;52.122;5.404;2023-07-09T12:06:44;9.27;;;6.63;;
75413;SDS011;64758;52.122;5.404;2023-07-09T12:09:16;9.07;;;6.10;;
75413;SDS011;64758;52.122;5.404;2023-07-09T12:11:45;7.07;;;5.88;;
75413;SDS011;64758;52.122;5.404;2023-07-09T12:14:17;11.00;;;6.57;;
75413;SDS011;64758;52.122;5.404;2023-07-09T12:16:46;6.72;;;5.88;;
75413;SDS011;64758;52.122;5.404;2023-07-09T12:19:22;7.85;;;5.70;;
75413;SDS011;64758;52.122;5.404;2023-07-09T12:21:51;6.55;;;5.55;;
75413;SDS011;64758;52.122;5.404;2023-07-09T12:24:23;9.77;;;5.93;;
75413;SDS011;64758;52.122;5.404;2023-07-09T12:26:56;6.67;;;5.60;;
75413;SDS011;64758;52.122;5.404;2023-07-09T12:29:28;8.05;;;5.90;;
75413;SDS011;64758;52.122;5.404;2023-07-09T12:32:11;6.68;;;5.32;;
75413;SDS011;64758;52.122;5.404;2023-07-09T12:34:39;9.05;;;5.60;;
75413;SDS011;64758;52.122;5.404;2023-07-09T12:37:13;8.85;;;5.85;;
75413;SDS011;64758;52.122;5.404;2023-07-09T12:39:41;6.63;;;5.67;;
75413;SDS011;64758;52.122;5.404;2023-07-09T12:42:24;8.13;;;6.25;;
75413;SDS011;64758;52.122;5.404;2023-07-09T12:44:56;8.90;;;6.65;;
75413;SDS011;64758;52.122;5.404;2023-07-09T12:47:23;8.73;;;6.13;;
75413;SDS011;64758;52.122;5.404;2023-07-09T12:49:51;8.65;;;5.97;;
75413;SDS011;64758;52.122;5.404;2023-07-09T12:52:27;7.43;;;6.57;;
75413;SDS011;64758;52.122;5.404;2023-07-09T12:57:24;9.82;;;6.07;;
75413;SDS011;64758;52.122;5.404;2023-07-09T12:59:51;7.95;;;5.93;;
75413;SDS011;64758;52.122;5.404;2023-07-09T13:02:21;9.05;;;6.43;;
75413;SDS011;64758;52.122;5.404;2023-07-09T13:05:03;7.60;;;5.90;;
75413;SDS011;64758;52.122;5.404;2023-07-09T13:07:33;7.15;;;5.75;;
75413;SDS011;64758;52.122;5.404;2023-07-09T13:10:05;8.07;;;6.30;;
75413;SDS011;64758;52.122;5.404;2023-07-09T13:12:34;8.63;;;6.60;;
75413;SDS011;64758;52.122;5.404;2023-07-09T13:15:00;8.77;;;6.60;;
75413;SDS011;64758;52.122;5.404;2023-07-09T13:17:28;8.33;;;5.60;;
75413;SDS011;64758;52.122;5.404;2023-07-09T13:19:56;8.30;;;5.03;;
75413;SDS011;64758;52.122;5.404;2023-07-09T13:22:23;6.68;;;5.45;;
75413;SDS011;64758;52.122;5.404;2023-07-09T13:24:51;5.82;;;4.80;;
75413;SDS011;64758;52.122;5.404;2023-07-09T13:27:18;6.53;;;5.63;;
75413;SDS011;64758;52.122;5.404;2023-07-09T13:29:44;6.70;;;5.30;;
75413;SDS011;64758;52.122;5.404;2023-07-09T13:32:13;7.45;;;5.70;;
75413;SDS011;64758;52.122;5.404;2023-07-09T13:34:41;8.88;;;5.65;;
75413;SDS011;64758;52.122;5.404;2023-07-09T13:37:10;9.05;;;5.50;;
75413;SDS011;64758;52.122;5.404;2023-07-09T13:39:39;8.70;;;5.95;;
75413;SDS011;64758;52.122;5.404;2023-07-09T13:42:13;10.40;;;5.80;;
75413;SDS011;64758;52.122;5.404;2023-07-09T13:44:43;9.20;;;6.10;;
75413;SDS011;64758;52.122;5.404;2023-07-09T13:47:14;7.07;;;5.38;;
75413;SDS011;64758;52.122;5.404;2023-07-09T13:49:43;6.55;;;5.65;;
75413;SDS011;64758;52.122;5.404;2023-07-09T13:52:21;8.25;;;5.20;;
75413;SDS011;64758;52.122;5.404;2023-07-09T13:54:52;7.77;;;5.17;;
75413;SDS011;64758;52.122;5.404;2023-07-09T13:57:20;8.38;;;5.07;;
75413;SDS011;64758;52.122;5.404;2023-07-09T13:59:48;10.02;;;5.10;;
75413;SDS011;64758;52.122;5.404;2023-07-09T14:02:24;6.53;;;4.00;;
75413;SDS011;64758;52.122;5.404;2023-07-09T14:04:58;7.38;;;4.53;;
75413;SDS011;64758;52.122;5.404;2023-07-09T14:10:05;4.35;;;3.63;;
75413;SDS011;64758;52.122;5.404;2023-07-09T14:12:34;6.43;;;3.75;;
75413;SDS011;64758;52.122;5.404;2023-07-09T14:15:05;6.35;;;3.28;;
75413;SDS011;64758;52.122;5.404;2023-07-09T14:17:38;5.75;;;3.30;;
75413;SDS011;64758;52.122;5.404;2023-07-09T14:20:05;6.20;;;2.90;;
75413;SDS011;64758;52.122;5.404;2023-07-09T14:22:33;4.38;;;2.38;;
75413;SDS011;64758;52.122;5.404;2023-07-09T14:25:01;4.53;;;2.83;;
75413;SDS011;64758;52.122;5.404;2023-07-09T14:27:29;6.82;;;3.05;;
75413;SDS011;64758;52.122;5.404;2023-07-09T14:29:55;8.82;;;2.83;;
75413;SDS011;64758;52.122;5.404;2023-07-09T14:32:35;7.67;;;2.87;;
75413;SDS011;64758;52.122;5.404;2023-07-09T14:35:11;6.10;;;2.60;;
75413;SDS011;64758;52.122;5.404;2023-07-09T14:37:40;6.57;;;2.60;;
75413;SDS011;64758;52.122;5.404;2023-07-09T14:40:07;6.72;;;2.65;;
75413;SDS011;64758;52.122;5.404;2023-07-09T14:42:36;5.05;;;3.00;;
75413;SDS011;64758;52.122;5.404;2023-07-09T14:45:05;7.27;;;2.90;;
75413;SDS011;64758;52.122;5.404;2023-07-09T14:47:43;11.63;;;3.40;;
75413;SDS011;64758;52.122;5.404;2023-07-09T14:50:10;8.05;;;2.80;;
75413;SDS011;64758;52.122;5.404;2023-07-09T14:52:37;4.65;;;2.65;;
75413;SDS011;64758;52.122;5.404;2023-07-09T14:55:05;7.88;;;3.72;;
75413;SDS011;64758;52.122;5.404;2023-07-09T14:57:32;7.57;;;2.77;;
75413;SDS011;64758;52.122;5.404;2023-07-09T14:59:59;5.75;;;3.08;;
75413;SDS011;64758;52.122;5.404;2023-07-09T15:02:36;11.30;;;3.70;;
75413;SDS011;64758;52.122;5.404;2023-07-09T15:05:09;8.43;;;2.97;;
75413;SDS011;64758;52.122;5.404;2023-07-09T15:07:39;7.72;;;3.30;;
75413;SDS011;64758;52.122;5.404;2023-07-09T15:10:06;8.83;;;3.23;;
75413;SDS011;64758;52.122;5.404;2023-07-09T15:12:35;7.53;;;3.65;;
75413;SDS011;64758;52.122;5.404;2023-07-09T15:15:12;5.88;;;3.95;;
75413;SDS011;64758;52.122;5.404;2023-07-09T15:17:39;6.78;;;2.88;;
75413;SDS011;64758;52.122;5.404;2023-07-09T15:20:12;5.78;;;2.20;;
75413;SDS011;64758;52.122;5.404;2023-07-09T15:22:42;5.33;;;2.17;;
75413;SDS011;64758;52.122;5.404;2023-07-09T15:25:15;3.63;;;2.22;;
75413;SDS011;64758;52.122;5.404;2023-07-09T15:27:45;6.88;;;3.05;;
75413;SDS011;64758;52.122;5.404;2023-07-09T15:30:12;5.18;;;3.60;;
75413;SDS011;64758;52.122;5.404;2023-07-09T15:32:40;8.95;;;3.78;;
75413;SDS011;64758;52.122;5.404;2023-07-09T15:35:07;6.87;;;4.10;;
75413;SDS011;64758;52.122;5.404;2023-07-09T15:37:34;8.35;;;4.80;;
75413;SDS011;64758;52.122;5.404;2023-07-09T15:40:00;7.70;;;4.70;;
75413;SDS011;64758;52.122;5.404;2023-07-09T15:42:27;9.23;;;4.75;;
75413;SDS011;64758;52.122;5.404;2023-07-09T15:44:53;11.20;;;5.63;;
75413;SDS011;64758;52.122;5.404;2023-07-09T15:47:22;9.80;;;5.60;;
75413;SDS011;64758;52.122;5.404;2023-07-09T15:49:52;10.40;;;5.50;;
75413;SDS011;64758;52.122;5.404;2023-07-09T15:52:18;8.10;;;6.05;;
75413;SDS011;64758;52.122;5.404;2023-07-09T15:54:45;10.70;;;6.40;;